Sunday, November 19, 2017, 11:14 PM EST
Back to Local

KAUG, Augusta State Airport

Location: Augusta, ME, United States Lat: 44.317
Local Time: 11:14 PM EST ( 4:14 GMT) Lon: -69.8
Time Zone: US/Eastern Elev: 351 ft

Show me the last for .
Show Decoded

2017-11-19 22:53 METAR KAUG 200353Z AUTO 28009G16KT 10SM OVC041 01/M07 A2951 RMK AO2 SLP993
                 T00061067 =
2017-11-19 21:53 METAR KAUG 200253Z AUTO 28008G18KT 250V310 10SM OVC042 01/M07 A2949 RMK AO2 PK
                 WND 29026/0221 SLP988 T00061072 51041 =
2017-11-19 20:53 METAR KAUG 200153Z AUTO 28013G24KT 10SM BKN038 01/M07 A2946 RMK AO2 PK WND
                 29026/0102 SLP977 T00061072 =
2017-11-19 19:53 METAR KAUG 200053Z AUTO 29016G27KT 10SM OVC038 01/M07 A2941 RMK AO2 PK WND
                 28033/0028 SLP962 T00061067 =
2017-11-19 18:53 METAR KAUG 192353Z AUTO 29017G34KT 10SM OVC036 01/M06 A2937 RMK AO2 PK WND
                 30034/2346 SLP947 60001 T00111061 10128 20011 51060 =
2017-11-19 17:53 METAR KAUG 192253Z AUTO 30012G20KT 10SM CLR 01/M05 A2933 RMK AO2 PK WND
                 32028/2228 PRESRR SLP935 T00111050 =
2017-11-19 16:53 METAR KAUG 192153Z AUTO 29014G23KT 10SM BKN031 02/M03 A2927 RMK AO2 PK WND
                 28037/2106 PRESRR SLP914 T00221033 =
2017-11-19 15:53 METAR KAUG 192053Z AUTO 30017G28KT 10SM OVC065 04/M01 A2919 RMK AO2 PK WND
                 31033/2037 PRESRR SLP887 60001 T00441011 53055 =
2017-11-19 14:53 METAR KAUG 191953Z AUTO 28014G27KT 10SM FEW019 BKN048 OVC060 06/01 A2912 RMK AO2
                 PK WND 29030/1910 PRESRR SLP862 T00610011 =
2017-11-19 14:42 METAR KAUG 191942Z AUTO 29016G22KT 10SM FEW019 BKN045 OVC055 07/03 A2910 RMK AO2
                 PK WND 29030/1910 T00670028 =
2017-11-19 13:53 METAR KAUG 191853Z AUTO 27010G23KT 10SM SCT014 BKN021 OVC036 11/09 A2903 RMK AO2
                 WSHFT 1827 RAE01B19E33 SLP831 P0001 T01110089 =
2017-11-19 13:41 METAR KAUG 191841Z AUTO 27016G24KT 10SM SCT010 BKN020 OVC036 12/10 A2902 RMK AO2
                 WSHFT 1827 RAE01B19E33 P0001 T01220100 =
2017-11-19 13:39 METAR KAUG 191839Z AUTO 26012G24KT 10SM FEW007 BKN012 OVC032 12/10 A2902 RMK AO2
                 RAE01B19E33 P0001 T01220100 =
2017-11-19 12:53 METAR KAUG 191753Z AUTO 20011G18KT 9SM -RA OVC005 13/12 A2900 RMK AO2 RAE16B36
                 CIG 004V009 SLP822 P0000 60013 T01280117 10133 20117 56028 =
2017-11-19 11:53 METAR KAUG 191653Z AUTO 19011G24KT 5SM -RA BR BKN006 OVC009 13/12 A2902 RMK AO2
                 RAB02E28B44 CIG 003V007 SLP829 P0002 T01280122 =
2017-11-19 11:20 METAR KAUG 191620Z AUTO 20007G17KT 130V230 6SM -RA BR OVC004 13/12 A2904 RMK AO2
                 RAB02 P0001 T01280122 =
2017-11-19 10:53 METAR KAUG 191553Z AUTO 20011G17KT 160V220 10SM OVC005 13/12 A2906 RMK AO2 RAE46
                 CIG 004V009 SLP841 P0003 T01280122 =
2017-11-19 10:31 METAR KAUG 191531Z AUTO 19009G20KT 5SM -RA BR OVC005 13/12 A2907 RMK AO2 CIG
                 004V009 P0003 T01280122 =
2017-11-19 10:23 METAR KAUG 191523Z AUTO 19006G19KT 2 1/2SM -RA BR OVC005 13/12 A2908 RMK AO2 CIG
                 004V009 P0003 T01280122 =
2017-11-19 09:53 METAR KAUG 191453Z AUTO 19009G18KT 150V220 8SM -RA OVC007 13/12 A2908 RMK AO2
                 CIG 005V011 SLP850 P0001 60008 T01280122 58033 =
2017-11-19 08:53 METAR KAUG 191353Z AUTO VRB05G15KT 6SM -RA BR OVC007 13/12 A2913 RMK AO2 CIG
                 005V009 SLP865 P0004 T01280122 =
2017-11-19 07:53 METAR KAUG 191253Z AUTO 19009G17KT 4SM -RA BR OVC006 12/12 A2917 RMK AO2 CIG
                 004V009 SLP880 P0003 T01220117 =
2017-11-19 06:53 METAR KAUG 191153Z AUTO 16012KT 6SM -RA BR OVC005 12/11 A2918 RMK AO2 CIG
                 004V010 SLP884 P0001 60025 70036 T01170111 10117 20022 56047 =
2017-11-19 05:55 METAR KAUG 191055Z AUTO 17010KT 4SM -RA BR OVC003 10/09 A2922 RMK AO2 P0000
                 T01000094 =
2017-11-19 05:48 METAR KAUG 191048Z AUTO 16010KT 2 1/2SM -RA BR OVC003 09/09 A2922 RMK AO2 SLP897
                 P0007 T00940094 =
2017-11-19 05:47 METAR KAUG 191047Z AUTO 16010KT 2SM -RA BR OVC003 09/09 A2922 RMK AO2 P0007 =
2017-11-19 05:20 METAR KAUG 191020Z AUTO 16007KT 1/2SM -RA FG VV003 08/08 A2925 RMK AO2 P0004
                 T00830083 =
2017-11-19 05:10 METAR KAUG 191010Z AUTO 15009KT 1 3/4SM RA BR OVC003 09/08 A2926 RMK AO2 PRESFR
                 P0003 T00890083 =
2017-11-19 04:53 METAR KAUG 190953Z AUTO 17007KT 3SM -RA BR OVC004 08/08 A2928 RMK AO2 SLP917
                 P0004 T00830078 =
2017-11-19 04:44 METAR KAUG 190944Z AUTO 16007KT 2SM -RA BR OVC004 08/08 A2928 RMK AO2 P0002
                 T00780078 =
2017-11-19 04:40 METAR KAUG 190940Z AUTO 16008KT 3/4SM -RA BR VV004 08/07 A2928 RMK AO2 P0002
                 T00780072 =
2017-11-19 04:33 METAR KAUG 190933Z AUTO 16008KT 1/4SM -RA FG VV004 07/07 A2928 RMK AO2 P0001
                 T00720067 =
2017-11-19 04:20 METAR KAUG 190920Z AUTO 15008KT 1/4SM -RA FG VV006 07/07 A2929 RMK AO2 PRESFR
                 P0001 T00720067 =
2017-11-19 04:08 METAR KAUG 190908Z AUTO 16008KT 1/2SM -RA FG BKN007 OVC018 07/07 A2931 RMK AO2
                 P0001 T00720067 =
2017-11-19 03:53 METAR KAUG 190853Z AUTO 17006KT 1/4SM -RA FG BKN005 BKN009 OVC018 06/06 A2932
                 RMK AO2 SLP932 P0005 60013 T00560056 58044 =
2017-11-19 03:34 METAR KAUG 190834Z AUTO 16004KT 1/4SM -RA FG VV003 04/04 A2933 RMK AO2 P0004
                 T00440044 =
2017-11-19 03:08 METAR KAUG 190808Z AUTO 14004KT 1/2SM -RA FG VV003 04/04 A2935 RMK AO2 PRESFR
                 P0002 T00440044 =
2017-11-19 02:53 METAR KAUG 190753Z AUTO 00000KT 1 1/2SM -RA BR OVC003 03/02 A2937 RMK AO2
                 RAE06B13 SLP949 P0005 T00280022 =
2017-11-19 02:10 METAR KAUG 190710Z AUTO 34004KT 1 1/4SM BR OVC003 02/02 A2941 RMK AO2 RAE06
                 P0000 T00220017 =
2017-11-19 02:01 METAR KAUG 190701Z AUTO 33003KT 2SM -RA BR OVC003 02/02 A2942 RMK AO2 P0000
                 T00220017 =
2017-11-19 01:53 METAR KAUG 190653Z AUTO 32003KT 1 3/4SM -RA BR OVC003 02/02 A2942 RMK AO2 SLP966
                 P0003 T00220017 =
2017-11-19 00:53 METAR KAUG 190553Z AUTO 01004KT 1 3/4SM -RA BR OVC003 02/01 A2945 RMK AO2 SLP976
                 P0001 60011 I6000 T00220011 10033 20011 58034 =
2017-11-19 00:45 METAR KAUG 190545Z AUTO VRB03KT 2SM -RA BR OVC003 02/02 A2947 RMK AO2 P0001
                 T00170017 =
2017-11-19 00:36 METAR KAUG 190536Z AUTO 36003KT 3/4SM -RA BR VV003 02/02 A2947 RMK AO2 PRESFR
                 P0001 T00170017 =
2017-11-19 00:05 METAR KAUG 190505Z AUTO 36003KT 1 1/4SM -RA BR OVC003 02/01 A2949 RMK AO2 PRESFR
                 P0000 T00170011 =
2017-11-18 23:53 METAR KAUG 190453Z AUTO 33005KT 2 1/2SM -RA BR OVC003 02/01 A2951 RMK AO2 SLP995
                 P0005 T00170011 400441050 =
2017-11-18 23:48 METAR KAUG 190448Z AUTO 34005KT 2SM -RA BR OVC003 02/01 A2951 RMK AO2 P0005 =

Support USWX by starting your Amazon purchase here.